CheckWX is a tool to help pilots better visualize weather data.  It is not intended as a substitute for an official pre-flight weather briefing.

05:12:34 UTC

KHWD METAR
Hayward Executive Airport
Hayward, California, USA
Current

19 mins ago

KHWD 240454Z 00000KT 10SM CLR 11/05 A3030 RMK AO2 SLP272 T01060050
Observed
Feb-24 @ 04:54 UTC
Visibility
10 SM
Flight Rules
VFR
Cloud Levels
  • Clear skies
Temperature
11°C / 52°F
Dewpoint
C / 41°F
Humidity
67%
Altimeter
30.3" Hg
Pressure
1027.2 hPa
Previous

1 hour ago

KHWD 240354Z 00000KT 10SM CLR 11/04 A3030 RMK AO2 SLP269 T01110044
Observed
Feb-24 @ 03:54 UTC
Visibility
10 SM
Flight Rules
VFR
Cloud Levels
  • Clear skies
Temperature
11°C / 52°F
Dewpoint
C / 39°F
Humidity
62%
Altimeter
30.3" Hg
Pressure
1026.9 hPa
Previous

2 hours ago

KHWD 240254Z 30003KT 10SM SCT120 11/05 A3030 RMK AO2 SLP269 T01110050 53001
Observed
Feb-24 @ 02:54 UTC
Wind
  • 300° at 3 KTS
Visibility
10 SM
Flight Rules
VFR
Cloud Levels
  • Scattered at 12,000' AGL
Temperature
11°C / 52°F
Dewpoint
C / 41°F
Humidity
67%
Altimeter
30.3" Hg
Pressure
1026.9 hPa